sensor_id;sensor_type;location;lat;lon;timestamp;pressure;altitude;pressure_sealevel;temperature;humidity
12949;BME280;6539;49.476;8.484;2023-03-16T00:00:07;101043.31;;;6.22;65.17
12949;BME280;6539;49.476;8.484;2023-03-16T00:02:39;101042.91;;;6.20;65.33
12949;BME280;6539;49.476;8.484;2023-03-16T00:05:06;101042.53;;;6.22;65.24
12949;BME280;6539;49.476;8.484;2023-03-16T00:07:32;101038.28;;;6.24;65.16
12949;BME280;6539;49.476;8.484;2023-03-16T00:09:59;101045.25;;;6.22;65.27
12949;BME280;6539;49.476;8.484;2023-03-16T00:12:24;101040.09;;;6.17;65.79
12949;BME280;6539;49.476;8.484;2023-03-16T00:14:51;101046.00;;;6.19;65.65
12949;BME280;6539;49.476;8.484;2023-03-16T00:17:19;101046.00;;;6.19;65.80
12949;BME280;6539;49.476;8.484;2023-03-16T00:19:47;101044.97;;;6.07;65.81
12949;BME280;6539;49.476;8.484;2023-03-16T00:22:16;101039.16;;;6.09;66.09
12949;BME280;6539;49.476;8.484;2023-03-16T00:24:44;101049.91;;;6.02;65.87
12949;BME280;6539;49.476;8.484;2023-03-16T00:27:14;101060.47;;;6.03;66.00
12949;BME280;6539;49.476;8.484;2023-03-16T00:29:47;101045.69;;;6.04;66.32
12949;BME280;6539;49.476;8.484;2023-03-16T00:32:16;101049.34;;;6.12;66.30
12949;BME280;6539;49.476;8.484;2023-03-16T00:34:46;101046.97;;;6.10;66.23
12949;BME280;6539;49.476;8.484;2023-03-16T00:37:16;101050.13;;;6.12;65.84
12949;BME280;6539;49.476;8.484;2023-03-16T00:39:45;101053.22;;;6.11;66.20
12949;BME280;6539;49.476;8.484;2023-03-16T00:42:13;101053.22;;;6.11;66.13
12949;BME280;6539;49.476;8.484;2023-03-16T00:44:42;101045.13;;;6.14;66.09
12949;BME280;6539;49.476;8.484;2023-03-16T00:47:12;101037.28;;;6.13;65.86
12949;BME280;6539;49.476;8.484;2023-03-16T00:49:43;101032.50;;;6.06;66.20
12949;BME280;6539;49.476;8.484;2023-03-16T00:52:11;101028.63;;;6.07;66.21
12949;BME280;6539;49.476;8.484;2023-03-16T00:54:46;101043.19;;;5.80;65.85
12949;BME280;6539;49.476;8.484;2023-03-16T00:57:15;101036.22;;;5.64;66.79
12949;BME280;6539;49.476;8.484;2023-03-16T00:59:45;101035.44;;;5.63;67.50
12949;BME280;6539;49.476;8.484;2023-03-16T01:02:12;101035.88;;;5.65;67.50
12949;BME280;6539;49.476;8.484;2023-03-16T01:04:39;101035.72;;;5.58;67.91
12949;BME280;6539;49.476;8.484;2023-03-16T01:07:13;101037.09;;;5.68;67.57
12949;BME280;6539;49.476;8.484;2023-03-16T01:09:42;101030.78;;;5.64;67.49
12949;BME280;6539;49.476;8.484;2023-03-16T01:12:17;101029.66;;;5.65;67.67
12949;BME280;6539;49.476;8.484;2023-03-16T01:14:46;101022.25;;;5.65;67.48
12949;BME280;6539;49.476;8.484;2023-03-16T01:17:14;101014.09;;;5.65;68.05
12949;BME280;6539;49.476;8.484;2023-03-16T01:19:41;101011.44;;;5.69;68.03
12949;BME280;6539;49.476;8.484;2023-03-16T01:22:14;101008.78;;;5.72;68.04
12949;BME280;6539;49.476;8.484;2023-03-16T01:24:42;101004.63;;;5.78;67.56
12949;BME280;6539;49.476;8.484;2023-03-16T01:27:10;101003.56;;;5.83;67.67
12949;BME280;6539;49.476;8.484;2023-03-16T01:29:39;101006.59;;;5.78;67.58
12949;BME280;6539;49.476;8.484;2023-03-16T01:32:08;101014.16;;;5.84;67.41
12949;BME280;6539;49.476;8.484;2023-03-16T01:34:34;101026.44;;;5.78;67.30
12949;BME280;6539;49.476;8.484;2023-03-16T01:37:04;101017.53;;;5.81;66.86
12949;BME280;6539;49.476;8.484;2023-03-16T01:39:32;101018.13;;;5.71;67.17
12949;BME280;6539;49.476;8.484;2023-03-16T01:41:59;101023.84;;;5.66;67.38
12949;BME280;6539;49.476;8.484;2023-03-16T01:44:26;101022.03;;;5.74;67.15
12949;BME280;6539;49.476;8.484;2023-03-16T01:46:59;101014.97;;;5.69;67.39
12949;BME280;6539;49.476;8.484;2023-03-16T01:49:33;101010.66;;;5.68;67.28
12949;BME280;6539;49.476;8.484;2023-03-16T01:52:18;101012.16;;;5.66;67.50
12949;BME280;6539;49.476;8.484;2023-03-16T01:54:57;101013.66;;;5.63;67.67
12949;BME280;6539;49.476;8.484;2023-03-16T01:57:33;101013.66;;;5.63;67.85
12949;BME280;6539;49.476;8.484;2023-03-16T02:00:08;101005.56;;;5.67;67.90
12949;BME280;6539;49.476;8.484;2023-03-16T02:02:41;100995.16;;;5.72;67.88
12949;BME280;6539;49.476;8.484;2023-03-16T02:05:18;100986.56;;;5.70;67.56
12949;BME280;6539;49.476;8.484;2023-03-16T02:07:50;101004.34;;;5.64;67.61
12949;BME280;6539;49.476;8.484;2023-03-16T02:10:23;100996.44;;;5.59;68.49
12949;BME280;6539;49.476;8.484;2023-03-16T02:12:53;100996.00;;;5.57;69.23
12949;BME280;6539;49.476;8.484;2023-03-16T02:15:19;100979.31;;;5.59;69.74
12949;BME280;6539;49.476;8.484;2023-03-16T02:17:50;100975.09;;;5.61;70.06
12949;BME280;6539;49.476;8.484;2023-03-16T02:22:48;100964.72;;;5.67;70.06
12949;BME280;6539;49.476;8.484;2023-03-16T02:25:25;100962.84;;;5.71;70.29
12949;BME280;6539;49.476;8.484;2023-03-16T02:28:09;100967.50;;;5.70;70.37
12949;BME280;6539;49.476;8.484;2023-03-16T02:30:39;100956.19;;;5.68;70.27
12949;BME280;6539;49.476;8.484;2023-03-16T02:33:10;100962.50;;;5.72;70.31
12949;BME280;6539;49.476;8.484;2023-03-16T02:35:37;100958.19;;;5.71;70.11
12949;BME280;6539;49.476;8.484;2023-03-16T02:38:03;100954.31;;;5.53;70.44
12949;BME280;6539;49.476;8.484;2023-03-16T02:40:32;100951.59;;;5.53;70.91
12949;BME280;6539;49.476;8.484;2023-03-16T02:43:18;100950.63;;;5.46;70.96
12949;BME280;6539;49.476;8.484;2023-03-16T02:45:53;100951.00;;;5.44;71.64
12949;BME280;6539;49.476;8.484;2023-03-16T02:48:30;100964.19;;;5.42;71.61
12949;BME280;6539;49.476;8.484;2023-03-16T02:50:59;100951.84;;;5.48;71.82
12949;BME280;6539;49.476;8.484;2023-03-16T02:53:27;100946.06;;;5.50;71.30
12949;BME280;6539;49.476;8.484;2023-03-16T02:55:53;100950.47;;;5.54;71.38
12949;BME280;6539;49.476;8.484;2023-03-16T02:58:19;100952.44;;;5.57;71.38
12949;BME280;6539;49.476;8.484;2023-03-16T03:00:47;100948.22;;;5.60;71.32
12949;BME280;6539;49.476;8.484;2023-03-16T03:03:13;100948.28;;;5.63;71.35
12949;BME280;6539;49.476;8.484;2023-03-16T03:05:39;100935.09;;;5.65;70.86
12949;BME280;6539;49.476;8.484;2023-03-16T03:08:06;100926.94;;;5.65;70.93
12949;BME280;6539;49.476;8.484;2023-03-16T03:10:32;100925.72;;;5.63;70.54
12949;BME280;6539;49.476;8.484;2023-03-16T03:12:58;100922.66;;;5.64;70.55
12949;BME280;6539;49.476;8.484;2023-03-16T03:15:24;100925.44;;;5.68;70.54
12949;BME280;6539;49.476;8.484;2023-03-16T03:17:50;100925.44;;;5.68;70.66
12949;BME280;6539;49.476;8.484;2023-03-16T03:20:16;100928.56;;;5.70;70.17
12949;BME280;6539;49.476;8.484;2023-03-16T03:22:46;100926.66;;;5.70;70.69
12949;BME280;6539;49.476;8.484;2023-03-16T03:25:14;100929.09;;;5.75;70.42
12949;BME280;6539;49.476;8.484;2023-03-16T03:27:46;100922.06;;;5.74;70.11
12949;BME280;6539;49.476;8.484;2023-03-16T03:30:21;100923.56;;;5.72;69.99
12949;BME280;6539;49.476;8.484;2023-03-16T03:32:47;100913.41;;;5.69;70.15
12949;BME280;6539;49.476;8.484;2023-03-16T03:35:14;100908.81;;;5.73;69.96
12949;BME280;6539;49.476;8.484;2023-03-16T03:37:42;100908.66;;;5.66;70.19
12949;BME280;6539;49.476;8.484;2023-03-16T03:40:13;100910.16;;;5.63;70.22
12949;BME280;6539;49.476;8.484;2023-03-16T03:42:41;100908.59;;;5.62;70.53
12949;BME280;6539;49.476;8.484;2023-03-16T03:45:14;100913.97;;;5.59;70.42
12949;BME280;6539;49.476;8.484;2023-03-16T03:47:43;100913.19;;;5.58;70.82
12949;BME280;6539;49.476;8.484;2023-03-16T03:50:13;100907.38;;;5.60;70.63
12949;BME280;6539;49.476;8.484;2023-03-16T03:52:41;100910.16;;;5.63;70.59
12949;BME280;6539;49.476;8.484;2023-03-16T03:55:08;100897.72;;;5.62;70.58
12949;BME280;6539;49.476;8.484;2023-03-16T03:57:34;100907.38;;;5.60;70.62
12949;BME280;6539;49.476;8.484;2023-03-16T04:00:00;100903.78;;;5.56;70.66
12949;BME280;6539;49.476;8.484;2023-03-16T04:02:26;100907.75;;;5.58;70.64
12949;BME280;6539;49.476;8.484;2023-03-16T04:04:53;100907.44;;;5.63;70.80
12949;BME280;6539;49.476;8.484;2023-03-16T04:07:21;100903.22;;;5.66;70.49
12949;BME280;6539;49.476;8.484;2023-03-16T04:09:47;100911.09;;;5.71;69.90
12949;BME280;6539;49.476;8.484;2023-03-16T04:12:13;100905.56;;;5.67;69.57
12949;BME280;6539;49.476;8.484;2023-03-16T04:14:41;100910.94;;;5.64;69.68
12949;BME280;6539;49.476;8.484;2023-03-16T04:17:07;100920.19;;;5.59;69.46
12949;BME280;6539;49.476;8.484;2023-03-16T04:19:35;100925.78;;;5.47;69.59
12949;BME280;6539;49.476;8.484;2023-03-16T04:22:07;100918.47;;;5.32;70.28
12949;BME280;6539;49.476;8.484;2023-03-16T04:24:33;100915.75;;;5.32;71.09
12949;BME280;6539;49.476;8.484;2023-03-16T04:27:00;100918.03;;;5.30;71.48
12949;BME280;6539;49.476;8.484;2023-03-16T04:29:29;100918.91;;;5.34;71.77
12949;BME280;6539;49.476;8.484;2023-03-16T04:31:57;100921.69;;;5.37;72.06
12949;BME280;6539;49.476;8.484;2023-03-16T04:34:22;100926.88;;;5.43;71.86
12949;BME280;6539;49.476;8.484;2023-03-16T04:36:52;100929.31;;;5.48;72.05
12949;BME280;6539;49.476;8.484;2023-03-16T04:39:21;100925.06;;;5.50;71.55
12949;BME280;6539;49.476;8.484;2023-03-16T04:41:48;100914.53;;;5.49;71.73
12949;BME280;6539;49.476;8.484;2023-03-16T04:44:18;100916.03;;;5.46;72.23
12949;BME280;6539;49.476;8.484;2023-03-16T04:46:44;100917.25;;;5.49;72.52
12949;BME280;6539;49.476;8.484;2023-03-16T04:49:10;100908.88;;;5.57;72.17
12949;BME280;6539;49.476;8.484;2023-03-16T04:51:38;100911.16;;;5.55;72.35
12949;BME280;6539;49.476;8.484;2023-03-16T04:54:05;100913.91;;;5.55;72.39
12949;BME280;6539;49.476;8.484;2023-03-16T04:56:32;100908.88;;;5.57;72.34
12949;BME280;6539;49.476;8.484;2023-03-16T04:59:00;100910.09;;;5.60;72.08
12949;BME280;6539;49.476;8.484;2023-03-16T05:01:29;100907.16;;;5.49;71.91
12949;BME280;6539;49.476;8.484;2023-03-16T05:03:54;100905.94;;;5.47;72.55
12949;BME280;6539;49.476;8.484;2023-03-16T05:06:20;100900.88;;;5.45;72.48
12949;BME280;6539;49.476;8.484;2023-03-16T05:08:46;100905.16;;;5.46;72.39
12949;BME280;6539;49.476;8.484;2023-03-16T05:11:13;100898.19;;;5.49;72.07
12949;BME280;6539;49.476;8.484;2023-03-16T05:13:41;100903.59;;;5.45;71.04
12949;BME280;6539;49.476;8.484;2023-03-16T05:16:09;100896.97;;;5.46;71.27
12949;BME280;6539;49.476;8.484;2023-03-16T05:18:35;100893.56;;;5.49;70.82
12949;BME280;6539;49.476;8.484;2023-03-16T05:21:05;100890.09;;;5.52;70.84
12949;BME280;6539;49.476;8.484;2023-03-16T05:23:34;100893.69;;;5.56;70.63
12949;BME280;6539;49.476;8.484;2023-03-16T05:26:00;100896.41;;;5.56;70.53
12949;BME280;6539;49.476;8.484;2023-03-16T05:28:27;100894.56;;;5.60;70.44
12949;BME280;6539;49.476;8.484;2023-03-16T05:30:53;100891.88;;;5.64;70.21
12949;BME280;6539;49.476;8.484;2023-03-16T05:33:19;100893.91;;;5.67;70.40
12949;BME280;6539;49.476;8.484;2023-03-16T05:35:49;100881.78;;;5.64;69.77
12949;BME280;6539;49.476;8.484;2023-03-16T05:38:15;100890.75;;;5.65;69.92
12949;BME280;6539;49.476;8.484;2023-03-16T05:40:44;100884.50;;;5.64;69.61
12949;BME280;6539;49.476;8.484;2023-03-16T05:43:10;100889.53;;;5.62;69.88
12949;BME280;6539;49.476;8.484;2023-03-16T05:45:36;100888.38;;;5.63;69.55
12949;BME280;6539;49.476;8.484;2023-03-16T05:48:02;100890.66;;;5.61;69.57
12949;BME280;6539;49.476;8.484;2023-03-16T05:50:32;100885.59;;;5.60;69.87
12949;BME280;6539;49.476;8.484;2023-03-16T05:53:03;100878.63;;;5.62;69.86
12949;BME280;6539;49.476;8.484;2023-03-16T05:55:29;100861.13;;;5.63;69.49
12949;BME280;6539;49.476;8.484;2023-03-16T05:57:58;100861.56;;;5.65;69.48
12949;BME280;6539;49.476;8.484;2023-03-16T06:00:26;100862.00;;;5.67;69.35
12949;BME280;6539;49.476;8.484;2023-03-16T06:02:52;100860.44;;;5.66;69.35
12949;BME280;6539;49.476;8.484;2023-03-16T06:05:20;100860.50;;;5.70;69.61
12949;BME280;6539;49.476;8.484;2023-03-16T06:07:49;100865.22;;;5.73;69.40
12949;BME280;6539;49.476;8.484;2023-03-16T06:10:16;100864.47;;;5.76;69.37
12949;BME280;6539;49.476;8.484;2023-03-16T06:12:46;100863.41;;;5.80;69.01
12949;BME280;6539;49.476;8.484;2023-03-16T06:15:15;100859.53;;;5.81;68.62
12949;BME280;6539;49.476;8.484;2023-03-16T06:17:41;100855.34;;;5.84;68.43
12949;BME280;6539;49.476;8.484;2023-03-16T06:20:09;100857.00;;;5.88;68.29
12949;BME280;6539;49.476;8.484;2023-03-16T06:22:42;100850.38;;;5.89;67.89
12949;BME280;6539;49.476;8.484;2023-03-16T06:25:10;100863.28;;;5.92;67.43
12949;BME280;6539;49.476;8.484;2023-03-16T06:27:42;100857.25;;;5.83;67.38
12949;BME280;6539;49.476;8.484;2023-03-16T06:30:11;100854.19;;;5.85;67.51
12949;BME280;6539;49.476;8.484;2023-03-16T06:32:38;100860.13;;;5.90;67.14
12949;BME280;6539;49.476;8.484;2023-03-16T06:35:08;100870.28;;;5.93;66.92
12949;BME280;6539;49.476;8.484;2023-03-16T06:37:36;100865.41;;;6.02;66.72
12949;BME280;6539;49.476;8.484;2023-03-16T06:40:03;100875.75;;;6.16;65.92
12949;BME280;6539;49.476;8.484;2023-03-16T06:42:29;100871.22;;;6.24;65.83
12949;BME280;6539;49.476;8.484;2023-03-16T06:44:55;100867.75;;;6.27;65.15
12949;BME280;6539;49.476;8.484;2023-03-16T06:47:21;100870.66;;;6.37;65.07
12949;BME280;6539;49.476;8.484;2023-03-16T06:49:47;100876.81;;;6.57;63.95
12949;BME280;6539;49.476;8.484;2023-03-16T06:52:13;100869.59;;;6.68;64.71
12949;BME280;6539;49.476;8.484;2023-03-16T06:54:40;100872.88;;;6.80;63.72
12949;BME280;6539;49.476;8.484;2023-03-16T06:57:06;100881.63;;;7.19;63.31
12949;BME280;6539;49.476;8.484;2023-03-16T06:59:32;100876.00;;;7.72;60.85
12949;BME280;6539;49.476;8.484;2023-03-16T07:01:59;100881.19;;;8.20;59.11
12949;BME280;6539;49.476;8.484;2023-03-16T07:04:28;100879.88;;;8.48;58.81
12949;BME280;6539;49.476;8.484;2023-03-16T07:06:54;100881.38;;;8.41;58.00
12949;BME280;6539;49.476;8.484;2023-03-16T07:09:22;100889.50;;;8.31;58.20
12949;BME280;6539;49.476;8.484;2023-03-16T07:11:48;100883.66;;;8.32;59.45
12949;BME280;6539;49.476;8.484;2023-03-16T07:14:17;100876.53;;;8.72;58.98
12949;BME280;6539;49.476;8.484;2023-03-16T07:16:44;100876.72;;;9.00;56.98
12949;BME280;6539;49.476;8.484;2023-03-16T07:19:10;100885.06;;;9.25;54.49
12949;BME280;6539;49.476;8.484;2023-03-16T07:21:36;100888.66;;;9.43;54.11
12949;BME280;6539;49.476;8.484;2023-03-16T07:24:07;100880.13;;;9.62;53.19
12949;BME280;6539;49.476;8.484;2023-03-16T07:26:33;100886.06;;;9.78;53.16
12949;BME280;6539;49.476;8.484;2023-03-16T07:28:59;100875.56;;;10.22;51.52
12949;BME280;6539;49.476;8.484;2023-03-16T07:31:25;100880.63;;;11.05;49.03
12949;BME280;6539;49.476;8.484;2023-03-16T07:33:51;100878.81;;;11.74;47.42
12949;BME280;6539;49.476;8.484;2023-03-16T07:36:19;100882.97;;;12.55;45.24
12949;BME280;6539;49.476;8.484;2023-03-16T07:38:48;100884.78;;;13.13;43.01
12949;BME280;6539;49.476;8.484;2023-03-16T07:41:16;100885.63;;;13.43;42.10
12949;BME280;6539;49.476;8.484;2023-03-16T07:43:42;100889.84;;;13.82;42.42
12949;BME280;6539;49.476;8.484;2023-03-16T07:46:11;100883.22;;;14.32;40.63
12949;BME280;6539;49.476;8.484;2023-03-16T07:48:39;100890.75;;;14.78;38.67
12949;BME280;6539;49.476;8.484;2023-03-16T07:51:08;100892.19;;;15.06;38.46
12949;BME280;6539;49.476;8.484;2023-03-16T07:53:43;100886.69;;;15.25;38.10
12949;BME280;6539;49.476;8.484;2023-03-16T07:56:12;100887.63;;;15.78;37.56
12949;BME280;6539;49.476;8.484;2023-03-16T07:58:38;100884.91;;;15.74;36.90
12949;BME280;6539;49.476;8.484;2023-03-16T08:01:04;100883.63;;;15.79;36.27
12949;BME280;6539;49.476;8.484;2023-03-16T08:03:30;100880.97;;;15.91;36.58
12949;BME280;6539;49.476;8.484;2023-03-16T08:05:58;100871.16;;;15.71;36.12
12949;BME280;6539;49.476;8.484;2023-03-16T08:08:24;100866.47;;;15.68;36.25
12949;BME280;6539;49.476;8.484;2023-03-16T08:10:51;100865.41;;;15.62;36.45
12949;BME280;6539;49.476;8.484;2023-03-16T08:13:18;100868.34;;;16.07;35.88
12949;BME280;6539;49.476;8.484;2023-03-16T08:15:48;100870.44;;;15.27;36.68
12949;BME280;6539;49.476;8.484;2023-03-16T08:18:20;100862.38;;;15.37;37.61
12949;BME280;6539;49.476;8.484;2023-03-16T08:20:51;100865.59;;;15.90;36.33
12949;BME280;6539;49.476;8.484;2023-03-16T08:23:17;100870.34;;;15.90;35.81
12949;BME280;6539;49.476;8.484;2023-03-16T08:25:50;100862.25;;;15.44;36.68
12949;BME280;6539;49.476;8.484;2023-03-16T08:28:16;100867.56;;;15.90;36.06
12949;BME280;6539;49.476;8.484;2023-03-16T08:30:49;100869.19;;;15.52;35.79
12949;BME280;6539;49.476;8.484;2023-03-16T08:33:22;100883.44;;;16.06;35.12
12949;BME280;6539;49.476;8.484;2023-03-16T08:35:48;100888.31;;;15.82;35.12
12949;BME280;6539;49.476;8.484;2023-03-16T08:38:16;100889.03;;;15.86;35.30
12949;BME280;6539;49.476;8.484;2023-03-16T08:40:43;100874.94;;;15.61;35.78
12949;BME280;6539;49.476;8.484;2023-03-16T08:43:15;100867.34;;;16.17;35.30
12949;BME280;6539;49.476;8.484;2023-03-16T08:45:44;100863.28;;;16.21;34.08
12949;BME280;6539;49.476;8.484;2023-03-16T08:48:13;100853.09;;;15.47;35.31
12949;BME280;6539;49.476;8.484;2023-03-16T08:50:45;100849.22;;;15.41;35.94
12949;BME280;6539;49.476;8.484;2023-03-16T08:53:13;100848.75;;;14.64;36.47
12949;BME280;6539;49.476;8.484;2023-03-16T08:55:40;100843.41;;;14.03;37.65
12949;BME280;6539;49.476;8.484;2023-03-16T08:58:07;100843.63;;;13.59;38.46
12949;BME280;6539;49.476;8.484;2023-03-16T09:00:33;100842.31;;;13.70;38.50
12949;BME280;6539;49.476;8.484;2023-03-16T09:03:02;100847.56;;;13.88;38.10
12949;BME280;6539;49.476;8.484;2023-03-16T09:05:28;100847.47;;;13.95;38.22
12949;BME280;6539;49.476;8.484;2023-03-16T09:07:55;100845.66;;;14.12;38.16
12949;BME280;6539;49.476;8.484;2023-03-16T09:10:23;100837.47;;;13.78;38.98
12949;BME280;6539;49.476;8.484;2023-03-16T09:12:50;100842.31;;;13.70;38.97
12949;BME280;6539;49.476;8.484;2023-03-16T09:15:20;100840.19;;;13.21;39.64
12949;BME280;6539;49.476;8.484;2023-03-16T09:17:47;100845.13;;;13.37;39.72
12949;BME280;6539;49.476;8.484;2023-03-16T09:20:16;100833.88;;;13.81;39.24
12949;BME280;6539;49.476;8.484;2023-03-16T09:22:43;100850.72;;;13.87;38.57
12949;BME280;6539;49.476;8.484;2023-03-16T09:25:09;100859.31;;;13.65;38.98
12949;BME280;6539;49.476;8.484;2023-03-16T09:27:36;100861.00;;;13.86;39.27
12949;BME280;6539;49.476;8.484;2023-03-16T09:30:06;100846.97;;;14.04;38.47
12949;BME280;6539;49.476;8.484;2023-03-16T09:32:33;100851.34;;;14.24;38.43
12949;BME280;6539;49.476;8.484;2023-03-16T09:34:59;100848.50;;;14.55;37.59
12949;BME280;6539;49.476;8.484;2023-03-16T09:37:35;100844.47;;;14.82;37.09
12949;BME280;6539;49.476;8.484;2023-03-16T09:40:02;100849.16;;;14.39;38.23
12949;BME280;6539;49.476;8.484;2023-03-16T09:42:37;100839.69;;;14.13;38.57
12949;BME280;6539;49.476;8.484;2023-03-16T09:45:48;100835.84;;;13.54;39.64
12949;BME280;6539;49.476;8.484;2023-03-16T09:48:20;100830.56;;;13.33;40.17
12949;BME280;6539;49.476;8.484;2023-03-16T09:50:47;100834.41;;;13.42;40.46
12949;BME280;6539;49.476;8.484;2023-03-16T09:53:35;100825.56;;;13.24;40.36
12949;BME280;6539;49.476;8.484;2023-03-16T09:56:33;100837.88;;;13.16;40.65
12949;BME280;6539;49.476;8.484;2023-03-16T09:59:11;100834.34;;;13.16;41.18
12949;BME280;6539;49.476;8.484;2023-03-16T10:08:05;100824.53;;;13.71;40.29
12949;BME280;6539;49.476;8.484;2023-03-16T10:16:53;100799.38;;;14.66;38.92
12949;BME280;6539;49.476;8.484;2023-03-16T10:19:40;100797.53;;;14.36;39.42
12949;BME280;6539;49.476;8.484;2023-03-16T10:22:20;100791.75;;;14.27;39.01
12949;BME280;6539;49.476;8.484;2023-03-16T10:27:41;100810.06;;;14.64;38.93
12949;BME280;6539;49.476;8.484;2023-03-16T10:30:30;100802.34;;;14.55;38.76
12949;BME280;6539;49.476;8.484;2023-03-16T10:33:26;100798.69;;;14.81;38.73
12949;BME280;6539;49.476;8.484;2023-03-16T10:36:23;100803.34;;;15.23;37.94
12949;BME280;6539;49.476;8.484;2023-03-16T10:39:07;100794.38;;;15.36;37.41
12949;BME280;6539;49.476;8.484;2023-03-16T10:41:37;100788.91;;;15.16;37.36
12949;BME280;6539;49.476;8.484;2023-03-16T10:44:30;100795.25;;;15.33;37.52
12949;BME280;6539;49.476;8.484;2023-03-16T10:47:05;100802.63;;;15.39;36.63
12949;BME280;6539;49.476;8.484;2023-03-16T10:49:42;100804.50;;;15.46;36.60
12949;BME280;6539;49.476;8.484;2023-03-16T10:52:39;100795.06;;;15.43;36.43
12949;BME280;6539;49.476;8.484;2023-03-16T10:55:30;100779.13;;;14.92;37.34
12949;BME280;6539;49.476;8.484;2023-03-16T10:57:59;100770.25;;;15.00;37.18
12949;BME280;6539;49.476;8.484;2023-03-16T11:00:34;100779.63;;;14.87;38.28
12949;BME280;6539;49.476;8.484;2023-03-16T11:03:19;100774.16;;;15.03;37.94
12949;BME280;6539;49.476;8.484;2023-03-16T11:06:00;100773.88;;;14.97;38.15
12949;BME280;6539;49.476;8.484;2023-03-16T11:08:37;100778.69;;;14.93;38.10
12949;BME280;6539;49.476;8.484;2023-03-16T11:11:13;100781.31;;;14.81;38.09
12949;BME280;6539;49.476;8.484;2023-03-16T11:13:46;100783.94;;;14.45;38.38
12949;BME280;6539;49.476;8.484;2023-03-16T11:16:22;100781.72;;;14.36;38.99
12949;BME280;6539;49.476;8.484;2023-03-16T11:18:57;100787.84;;;14.24;39.45
12949;BME280;6539;49.476;8.484;2023-03-16T11:22:10;100780.19;;;14.35;39.68
12949;BME280;6539;49.476;8.484;2023-03-16T11:32:56;100760.16;;;14.28;39.45
12949;BME280;6539;49.476;8.484;2023-03-16T11:38:33;100758.91;;;14.56;38.93
12949;BME280;6539;49.476;8.484;2023-03-16T11:41:09;100755.38;;;14.32;39.40
12949;BME280;6539;49.476;8.484;2023-03-16T11:46:25;100748.91;;;14.42;39.39
12949;BME280;6539;49.476;8.484;2023-03-16T11:52:48;100744.59;;;13.68;41.23
12949;BME280;6539;49.476;8.484;2023-03-16T11:58:40;100738.34;;;13.64;41.21
12949;BME280;6539;49.476;8.484;2023-03-16T12:04:03;100711.66;;;13.81;40.84
12949;BME280;6539;49.476;8.484;2023-03-16T12:06:44;100723.28;;;14.15;40.64
12949;BME280;6539;49.476;8.484;2023-03-16T12:15:46;100716.25;;;14.96;38.82
12949;BME280;6539;49.476;8.484;2023-03-16T12:18:24;100716.03;;;14.87;38.39
12949;BME280;6539;49.476;8.484;2023-03-16T12:21:08;100721.91;;;14.69;39.08
12949;BME280;6539;49.476;8.484;2023-03-16T12:23:53;100712.00;;;14.72;38.85
12949;BME280;6539;49.476;8.484;2023-03-16T12:26:25;100697.19;;;14.62;38.71
12949;BME280;6539;49.476;8.484;2023-03-16T12:29:28;100693.78;;;14.74;39.01
12949;BME280;6539;49.476;8.484;2023-03-16T12:32:01;100691.94;;;14.87;38.59
12949;BME280;6539;49.476;8.484;2023-03-16T12:34:59;100688.38;;;15.06;38.16
12949;BME280;6539;49.476;8.484;2023-03-16T12:38:21;100687.38;;;15.33;37.95
12949;BME280;6539;49.476;8.484;2023-03-16T12:41:06;100681.66;;;15.23;37.70
12949;BME280;6539;49.476;8.484;2023-03-16T12:44:18;100674.44;;;15.10;37.98
12949;BME280;6539;49.476;8.484;2023-03-16T12:49:35;100676.47;;;15.25;38.16
12949;BME280;6539;49.476;8.484;2023-03-16T12:52:08;100666.38;;;14.99;38.03
12949;BME280;6539;49.476;8.484;2023-03-16T12:54:34;100664.59;;;15.09;37.96
12949;BME280;6539;49.476;8.484;2023-03-16T12:57:08;100656.91;;;15.16;37.85
12949;BME280;6539;49.476;8.484;2023-03-16T12:59:46;100643.97;;;15.13;38.38
12949;BME280;6539;49.476;8.484;2023-03-16T13:02:36;100644.06;;;15.26;38.24
12949;BME280;6539;49.476;8.484;2023-03-16T13:05:17;100643.66;;;15.60;38.19
12949;BME280;6539;49.476;8.484;2023-03-16T13:07:49;100642.53;;;15.73;37.50
12949;BME280;6539;49.476;8.484;2023-03-16T13:10:18;100641.41;;;15.87;37.30
12949;BME280;6539;49.476;8.484;2023-03-16T13:12:47;100648.28;;;15.95;37.16
12949;BME280;6539;49.476;8.484;2023-03-16T13:20:59;100622.78;;;15.07;37.60
12949;BME280;6539;49.476;8.484;2023-03-16T13:23:53;100627.38;;;15.13;37.23
12949;BME280;6539;49.476;8.484;2023-03-16T13:26:47;100623.38;;;15.14;36.51
12949;BME280;6539;49.476;8.484;2023-03-16T13:29:31;100618.53;;;15.18;36.49
12949;BME280;6539;49.476;8.484;2023-03-16T13:32:06;100625.72;;;15.32;37.25
12949;BME280;6539;49.476;8.484;2023-03-16T13:34:48;100623.41;;;15.31;37.45
12949;BME280;6539;49.476;8.484;2023-03-16T13:37:18;100619.75;;;15.34;37.71
12949;BME280;6539;49.476;8.484;2023-03-16T13:39:57;100613.00;;;15.18;37.63
12949;BME280;6539;49.476;8.484;2023-03-16T13:42:29;100594.69;;;15.41;37.43
12949;BME280;6539;49.476;8.484;2023-03-16T13:44:58;100592.97;;;15.14;37.46
12949;BME280;6539;49.476;8.484;2023-03-16T13:47:30;100589.31;;;14.85;38.42
12949;BME280;6539;49.476;8.484;2023-03-16T13:50:02;100587.88;;;15.13;38.24
12949;BME280;6539;49.476;8.484;2023-03-16T13:52:32;100579.91;;;15.15;37.13
12949;BME280;6539;49.476;8.484;2023-03-16T13:55:05;100578.88;;;15.09;36.78
12949;BME280;6539;49.476;8.484;2023-03-16T13:57:40;100569.63;;;14.83;37.36
12949;BME280;6539;49.476;8.484;2023-03-16T14:00:31;100570.31;;;14.87;37.63
12949;BME280;6539;49.476;8.484;2023-03-16T14:03:10;100567.97;;;15.02;36.77
12949;BME280;6539;49.476;8.484;2023-03-16T14:05:39;100571.69;;;14.95;36.80
12949;BME280;6539;49.476;8.484;2023-03-16T14:08:21;100571.09;;;14.88;37.64
12949;BME280;6539;49.476;8.484;2023-03-16T14:10:53;100569.53;;;14.51;38.14
12949;BME280;6539;49.476;8.484;2023-03-16T14:16:18;100558.09;;;14.33;38.87
12949;BME280;6539;49.476;8.484;2023-03-16T14:18:55;100560.28;;;14.41;39.11
12949;BME280;6539;49.476;8.484;2023-03-16T14:21:25;100554.97;;;14.31;39.46
12949;BME280;6539;49.476;8.484;2023-03-16T14:24:00;100562.19;;;14.25;39.22
12949;BME280;6539;49.476;8.484;2023-03-16T14:26:27;100563.59;;;14.13;39.36